Time;durP1;ratioP1;P1;durP2;ratioP2;P2;SDS_P1;SDS_P2;PMS_P1;PMS_P2;Temp;Humidity;BMP_temperature;BMP_pressure;BME280_temperature;BME280_humidity;BME280_pressure;Samples;Min_cycle;Max_cycle;Signal;HPM_P1;HPM_P2
2022/03/28 00:01:45;;;;;;;16.65;5.75;;;6.80;99.90;;;;;;5074910;28;20462;-70
2022/03/28 00:04:12;;;;;;;11.27;5.88;;;6.70;99.90;;;;;;5074979;28;20127;-70
2022/03/28 00:06:40;;;;;;;9.07;5.55;;;6.80;99.90;;;;;;5074039;28;20051;-70
2022/03/28 00:09:07;;;;;;;11.52;5.57;;;6.70;99.90;;;;;;5075243;28;20126;-70
2022/03/28 00:11:34;;;;;;;11.48;5.88;;;6.70;99.90;;;;;;5074944;28;20055;-70
2022/03/28 00:14:01;;;;;;;12.13;6.30;;;6.70;99.90;;;;;;5092621;28;20407;-70
2022/03/28 00:16:28;;;;;;;12.45;6.13;;;6.70;99.90;;;;;;5092609;28;20047;-70
2022/03/28 00:18:55;;;;;;;13.93;6.28;;;6.70;99.90;;;;;;5075160;28;20052;-71
2022/03/28 00:21:22;;;;;;;11.13;5.95;;;6.70;99.90;;;;;;5092476;28;20044;-71
2022/03/28 00:23:50;;;;;;;7.45;4.82;;;6.70;99.90;;;;;;5093232;28;20048;-71
2022/03/28 00:26:17;;;;;;;7.43;4.60;;;6.80;99.90;;;;;;5092216;28;20105;-70
2022/03/28 00:28:44;;;;;;;7.95;4.60;;;6.70;99.90;;;;;;5093334;28;20093;-70
2022/03/28 00:31:11;;;;;;;6.85;4.72;;;6.70;99.90;;;;;;5074243;28;20044;-70
2022/03/28 00:33:38;;;;;;;8.98;4.82;;;6.70;99.90;;;;;;5074320;28;20056;-70
2022/03/28 00:36:06;;;;;;;7.40;4.43;;;6.70;99.90;;;;;;5074543;28;20044;-69
2022/03/28 00:38:33;;;;;;;7.38;4.93;;;6.70;99.90;;;;;;5093007;28;20044;-70
2022/03/28 00:41:04;;;;;;;10.57;5.50;;;6.70;99.90;;;;;;5074414;28;20052;-69
2022/03/28 00:43:31;;;;;;;10.63;5.22;;;6.70;99.90;;;;;;5074893;28;20135;-70
2022/03/28 00:45:58;;;;;;;6.53;4.53;;;6.70;99.90;;;;;;5092169;28;20491;-70
2022/03/28 00:48:26;;;;;;;9.30;5.18;;;6.60;99.90;;;;;;5092193;28;20048;-70
2022/03/28 00:50:56;;;;;;;6.40;4.45;;;6.50;99.90;;;;;;5092675;28;20055;-70
2022/03/28 00:53:23;;;;;;;11.95;4.47;;;6.40;99.90;;;;;;5092844;28;20063;-70
2022/03/28 00:55:50;;;;;;;7.13;4.18;;;6.40;99.90;;;;;;5074484;28;20377;-70
2022/03/28 00:58:18;;;;;;;7.85;4.03;;;6.40;99.90;;;;;;5074710;28;20129;-70
2022/03/28 01:00:45;;;;;;;8.65;4.85;;;6.30;99.90;;;;;;5092559;28;20048;-70
2022/03/28 01:03:12;;;;;;;6.40;4.93;;;6.30;99.90;;;;;;5091776;28;20048;-70
2022/03/28 01:05:38;;;;;;;8.20;4.13;;;6.30;99.90;;;;;;5074376;28;20044;-70
2022/03/28 01:08:06;;;;;;;8.93;4.50;;;6.30;99.90;;;;;;5073978;28;20500;-71
2022/03/28 01:10:32;;;;;;;5.82;4.38;;;6.30;99.90;;;;;;5073995;28;20052;-70
2022/03/28 01:13:02;;;;;;;8.32;5.05;;;6.30;99.90;;;;;;5074544;28;20056;-70
2022/03/28 01:15:30;;;;;;;8.02;5.30;;;6.30;99.90;;;;;;5092404;28;20048;-70
2022/03/28 01:18:09;;;;;;;6.93;4.70;;;6.20;99.90;;;;;;5094545;28;20056;-70
2022/03/28 01:20:38;;;;;;;14.38;5.00;;;6.20;99.90;;;;;;5078657;28;20040;-70
2022/03/28 01:23:08;;;;;;;8.45;4.50;;;6.20;99.90;;;;;;5095976;28;20044;-70
2022/03/28 01:25:35;;;;;;;8.43;5.28;;;6.20;99.90;;;;;;5096885;28;20048;-70
2022/03/28 01:28:02;;;;;;;13.10;5.47;;;6.20;99.90;;;;;;5095556;28;20052;-70
2022/03/28 01:30:30;;;;;;;7.80;5.20;;;6.10;99.90;;;;;;5095518;28;20078;-70
2022/03/28 01:32:58;;;;;;;10.05;5.68;;;6.20;99.90;;;;;;5096848;28;20416;-70
2022/03/28 01:35:27;;;;;;;11.82;6.47;;;6.20;99.90;;;;;;5096531;28;20488;-70
2022/03/28 01:37:54;;;;;;;13.52;5.85;;;6.20;99.90;;;;;;5076044;28;20060;-70
2022/03/28 01:40:22;;;;;;;6.00;4.55;;;6.30;99.90;;;;;;5076379;28;20377;-70
2022/03/28 01:42:49;;;;;;;8.00;5.57;;;6.20;99.90;;;;;;5076074;28;20052;-70
2022/03/28 01:45:18;;;;;;;9.45;5.68;;;6.30;99.90;;;;;;5093897;28;20134;-70
2022/03/28 01:47:45;;;;;;;7.78;5.10;;;6.30;99.90;;;;;;5096478;28;20130;-70
2022/03/28 01:50:12;;;;;;;9.93;5.70;;;6.30;99.90;;;;;;5096632;28;20112;-71
2022/03/28 01:52:39;;;;;;;12.70;5.78;;;6.30;99.90;;;;;;5077824;28;20056;-70
2022/03/28 01:55:07;;;;;;;11.52;6.50;;;6.30;99.90;;;;;;5078358;28;20476;-70
2022/03/28 01:57:35;;;;;;;12.60;6.05;;;6.20;99.90;;;;;;5077894;28;20055;-70
2022/03/28 02:00:02;;;;;;;9.13;6.32;;;6.20;99.90;;;;;;5095593;28;20105;-71
2022/03/28 02:02:30;;;;;;;11.45;5.70;;;6.20;99.90;;;;;;5077943;28;20541;-71
2022/03/28 02:04:56;;;;;;;9.13;5.85;;;6.20;99.90;;;;;;5077753;28;20130;-71
2022/03/28 02:07:23;;;;;;;8.02;5.63;;;6.20;99.90;;;;;;5077571;28;20124;-71
2022/03/28 02:09:50;;;;;;;11.90;5.68;;;6.30;99.90;;;;;;5096010;28;20055;-70
2022/03/28 02:12:18;;;;;;;10.13;5.30;;;6.30;99.90;;;;;;5077470;28;20051;-70
2022/03/28 02:14:46;;;;;;;7.65;5.07;;;6.30;99.90;;;;;;5074075;28;20181;-70
2022/03/28 02:17:13;;;;;;;9.27;5.65;;;6.30;99.90;;;;;;5057464;28;20090;-70
2022/03/28 02:19:40;;;;;;;8.82;5.90;;;6.30;99.90;;;;;;5074886;28;20565;-70
2022/03/28 02:22:07;;;;;;;12.88;5.97;;;6.30;99.90;;;;;;5057766;28;20507;-70
2022/03/28 02:24:34;;;;;;;9.77;5.78;;;6.30;99.90;;;;;;5058072;28;20139;-70
2022/03/28 02:27:01;;;;;;;8.55;5.63;;;6.30;99.90;;;;;;5056676;28;20492;-70
2022/03/28 02:29:28;;;;;;;9.73;5.93;;;6.30;99.90;;;;;;5087270;28;20055;-70
2022/03/28 02:31:57;;;;;;;8.85;5.63;;;6.30;99.90;;;;;;5077611;28;20071;-70
2022/03/28 02:34:24;;;;;;;10.02;5.57;;;6.40;99.90;;;;;;5076910;28;20056;-70
2022/03/28 02:36:51;;;;;;;8.23;5.13;;;6.30;99.90;;;;;;5095609;28;20102;-70
2022/03/28 02:39:17;;;;;;;10.07;6.00;;;6.30;99.90;;;;;;5095448;28;20047;-70
2022/03/28 02:41:44;;;;;;;9.40;5.30;;;6.30;99.90;;;;;;5094828;28;20056;-70
2022/03/28 02:44:11;;;;;;;12.20;6.13;;;6.30;99.90;;;;;;5077008;28;20052;-70
2022/03/28 02:46:38;;;;;;;8.75;5.45;;;6.30;99.90;;;;;;5077226;28;20442;-71
2022/03/28 02:49:06;;;;;;;11.70;6.32;;;6.20;99.90;;;;;;5076227;28;20044;-70
2022/03/28 02:51:33;;;;;;;12.75;6.03;;;6.30;99.90;;;;;;5077585;28;20105;-71
2022/03/28 02:54:00;;;;;;;12.23;6.22;;;6.30;99.90;;;;;;5094585;28;20567;-71
2022/03/28 02:56:27;;;;;;;9.68;6.40;;;6.30;99.90;;;;;;5077265;28;20047;-70
2022/03/28 02:58:53;;;;;;;12.13;6.40;;;6.30;99.90;;;;;;5094641;28;20044;-70
2022/03/28 03:01:20;;;;;;;9.98;6.82;;;6.20;99.90;;;;;;5094302;28;20530;-71
2022/03/28 03:03:47;;;;;;;12.07;6.90;;;6.20;99.90;;;;;;5076672;28;20047;-70
2022/03/28 03:06:15;;;;;;;12.63;6.88;;;6.10;99.90;;;;;;5076888;28;20044;-71
2022/03/28 03:08:42;;;;;;;9.48;5.82;;;6.10;99.90;;;;;;5094022;28;20044;-71
2022/03/28 03:11:09;;;;;;;11.60;6.35;;;6.10;99.90;;;;;;5076943;28;20052;-70
2022/03/28 03:13:36;;;;;;;12.00;6.78;;;6.00;99.90;;;;;;5072983;28;20055;-70
2022/03/28 03:16:04;;;;;;;9.48;6.43;;;6.00;99.90;;;;;;5073982;28;20060;-70
2022/03/28 03:18:31;;;;;;;10.23;5.88;;;6.00;99.90;;;;;;5074383;28;20056;-70
2022/03/28 03:20:58;;;;;;;10.90;6.15;;;6.00;99.90;;;;;;5057050;28;20064;-70
2022/03/28 03:23:27;;;;;;;10.25;6.50;;;6.00;99.90;;;;;;5093345;28;20040;-70
2022/03/28 03:25:54;;;;;;;9.50;5.35;;;6.00;99.90;;;;;;5076365;28;20044;-70
2022/03/28 03:28:21;;;;;;;11.23;5.70;;;6.00;99.90;;;;;;5094214;28;20048;-70
2022/03/28 03:30:48;;;;;;;9.00;5.97;;;6.00;99.90;;;;;;5093998;28;20377;-70
2022/03/28 03:33:16;;;;;;;12.85;7.05;;;6.00;99.90;;;;;;5094350;28;20061;-70
2022/03/28 03:35:42;;;;;;;10.98;6.55;;;6.00;99.90;;;;;;5094478;28;20044;-70
2022/03/28 03:38:10;;;;;;;13.15;6.53;;;6.00;99.90;;;;;;5075027;28;20040;-70
2022/03/28 03:40:39;;;;;;;9.07;5.63;;;6.00;99.90;;;;;;5094055;28;20093;-70
2022/03/28 03:43:06;;;;;;;11.52;6.85;;;6.00;99.90;;;;;;5075998;28;20047;-71
2022/03/28 03:45:33;;;;;;;9.80;5.28;;;6.00;99.90;;;;;;5093700;28;20063;-70
2022/03/28 03:48:00;;;;;;;10.70;6.13;;;6.00;99.90;;;;;;5093747;28;20086;-70
2022/03/28 03:50:27;;;;;;;10.88;5.68;;;5.90;99.90;;;;;;5093730;28;20051;-70
2022/03/28 03:52:54;;;;;;;12.23;6.50;;;5.90;99.90;;;;;;5094008;28;20051;-70
2022/03/28 03:55:21;;;;;;;10.70;6.53;;;5.90;99.90;;;;;;5075705;28;20162;-71
2022/03/28 03:57:49;;;;;;;11.73;6.32;;;5.90;99.90;;;;;;5075085;28;20044;-70
2022/03/28 04:00:17;;;;;;;8.38;5.65;;;5.90;99.90;;;;;;5076001;28;20395;-70
2022/03/28 04:02:44;;;;;;;12.02;6.68;;;5.90;99.90;;;;;;5093282;28;20511;-70
2022/03/28 04:05:12;;;;;;;9.75;6.20;;;5.90;99.90;;;;;;5075055;28;20105;-71
2022/03/28 04:07:39;;;;;;;9.73;5.72;;;5.80;99.90;;;;;;5093425;28;20048;-70
2022/03/28 04:10:06;;;;;;;10.77;5.75;;;5.80;99.90;;;;;;5075965;28;20392;-70
2022/03/28 04:12:33;;;;;;;9.23;4.90;;;5.80;99.90;;;;;;5074777;28;20507;-70
2022/03/28 04:15:02;;;;;;;8.73;5.15;;;5.80;99.90;;;;;;5075794;28;20051;-70
2022/03/28 04:17:30;;;;;;;9.23;5.35;;;5.70;99.90;;;;;;5074735;28;20048;-70
2022/03/28 04:19:58;;;;;;;8.18;4.75;;;5.80;99.90;;;;;;5074915;28;20141;-71
2022/03/28 04:22:25;;;;;;;8.27;4.75;;;5.80;99.90;;;;;;5093375;28;20078;-71
2022/03/28 04:24:52;;;;;;;6.35;4.05;;;5.80;99.90;;;;;;5075428;28;20056;-71
2022/03/28 04:27:19;;;;;;;9.02;4.50;;;5.80;99.90;;;;;;5074561;28;20442;-72
2022/03/28 04:29:46;;;;;;;7.97;4.07;;;5.80;99.90;;;;;;5075300;28;20109;-71
2022/03/28 04:32:14;;;;;;;6.30;3.92;;;5.80;99.90;;;;;;5093031;28;20408;-71
2022/03/28 04:34:41;;;;;;;7.45;4.13;;;5.80;99.90;;;;;;5092357;28;20482;-70
2022/03/28 04:37:08;;;;;;;5.70;3.47;;;5.80;99.90;;;;;;5075431;28;20044;-71
2022/03/28 04:39:35;;;;;;;5.47;3.40;;;5.70;99.90;;;;;;5074321;28;20052;-71
2022/03/28 04:42:01;;;;;;;6.22;3.92;;;5.80;99.90;;;;;;5075534;28;20067;-70
2022/03/28 04:44:28;;;;;;;5.68;3.58;;;5.70;99.90;;;;;;5075178;28;20052;-70
2022/03/28 04:46:55;;;;;;;7.00;4.07;;;5.70;99.90;;;;;;5070902;28;20052;-71
2022/03/28 04:49:23;;;;;;;6.88;3.92;;;5.70;99.90;;;;;;5055078;28;20508;-70
2022/03/28 04:51:50;;;;;;;5.20;3.20;;;5.70;99.90;;;;;;5061037;28;20427;-70
2022/03/28 04:54:17;;;;;;;6.32;3.47;;;5.70;99.90;;;;;;5071842;28;20048;-70
2022/03/28 04:56:44;;;;;;;5.10;3.30;;;5.70;99.90;;;;;;5065290;28;20044;-70
2022/03/28 04:59:11;;;;;;;4.40;2.50;;;5.70;99.90;;;;;;5090627;28;20050;-71
2022/03/28 05:01:38;;;;;;;4.60;2.55;;;5.70;99.90;;;;;;5083520;28;20455;-69
2022/03/28 05:04:05;;;;;;;3.95;2.15;;;5.70;99.90;;;;;;5083117;28;20048;-69
2022/03/28 05:06:33;;;;;;;4.38;2.55;;;5.70;99.90;;;;;;5067367;28;20036;-70
2022/03/28 05:09:00;;;;;;;4.72;2.45;;;5.60;99.90;;;;;;5070192;28;20568;-70
2022/03/28 05:11:29;;;;;;;4.10;2.45;;;5.60;99.90;;;;;;5068056;28;20063;-70
2022/03/28 05:13:55;;;;;;;4.53;2.55;;;5.70;99.90;;;;;;5085161;28;20044;-69
2022/03/28 05:16:22;;;;;;;3.70;2.00;;;5.70;99.90;;;;;;5069263;28;20145;-70
2022/03/28 05:18:49;;;;;;;3.70;2.10;;;5.70;99.90;;;;;;5067651;28;20492;-70
2022/03/28 05:21:16;;;;;;;5.70;3.33;;;5.60;99.90;;;;;;5086287;28;20102;-70
2022/03/28 05:23:46;;;;;;;5.72;3.22;;;5.60;99.90;;;;;;5066594;28;20109;-69
2022/03/28 05:26:13;;;;;;;5.20;3.22;;;5.60;99.90;;;;;;5087114;28;20097;-70
2022/03/28 05:28:39;;;;;;;5.95;3.90;;;5.50;99.90;;;;;;5066127;28;20051;-70
2022/03/28 05:31:06;;;;;;;6.85;4.10;;;5.50;99.90;;;;;;5067544;28;20052;-68
2022/03/28 05:33:33;;;;;;;7.25;4.28;;;5.50;99.90;;;;;;5081854;28;20083;-69
2022/03/28 05:36:00;;;;;;;9.40;5.70;;;5.50;99.90;;;;;;5082084;28;20052;-69
2022/03/28 05:38:28;;;;;;;9.65;4.75;;;5.40;99.90;;;;;;5067193;28;20381;-69
2022/03/28 05:40:57;;;;;;;11.48;6.13;;;5.40;99.90;;;;;;5065294;28;20118;-70
2022/03/28 05:43:24;;;;;;;9.05;5.22;;;5.40;99.90;;;;;;5085215;28;20044;-69
2022/03/28 05:45:52;;;;;;;8.38;4.95;;;5.40;99.90;;;;;;5065326;28;20411;-70
2022/03/28 05:48:19;;;;;;;9.82;5.63;;;5.40;99.90;;;;;;5065724;28;20107;-69
2022/03/28 05:50:46;;;;;;;9.63;6.35;;;5.40;99.90;;;;;;5067628;28;20119;-69
2022/03/28 05:53:13;;;;;;;10.07;5.80;;;5.40;99.90;;;;;;5067497;28;20051;-70
2022/03/28 05:55:40;;;;;;;15.15;7.40;;;5.40;99.90;;;;;;5065349;28;20150;-68
2022/03/28 05:58:09;;;;;;;11.88;6.40;;;5.50;99.90;;;;;;5066446;28;20045;-70
2022/03/28 06:00:36;;;;;;;12.80;5.97;;;5.50;99.90;;;;;;5085077;28;20064;-70
2022/03/28 06:03:04;;;;;;;8.70;5.53;;;5.50;99.90;;;;;;5063992;28;20106;-69
2022/03/28 06:05:31;;;;;;;8.63;5.70;;;5.50;99.90;;;;;;5081892;28;20457;-69
2022/03/28 06:07:59;;;;;;;10.82;6.43;;;5.40;99.90;;;;;;5091489;28;20545;-70
2022/03/28 06:10:26;;;;;;;11.55;6.38;;;5.50;99.90;;;;;;5089633;28;20048;-68
2022/03/28 06:12:53;;;;;;;9.35;6.00;;;5.50;99.90;;;;;;5086515;28;20044;-68
2022/03/28 06:15:21;;;;;;;9.68;6.95;;;5.60;99.90;;;;;;5072299;28;20060;-69
2022/03/28 06:17:48;;;;;;;10.88;6.88;;;5.60;99.90;;;;;;5090341;28;20044;-68
2022/03/28 06:20:15;;;;;;;11.05;7.10;;;5.60;99.90;;;;;;5088093;28;20052;-68
2022/03/28 06:22:42;;;;;;;13.40;7.22;;;5.70;99.90;;;;;;5074357;28;20101;-68
2022/03/28 06:25:09;;;;;;;11.45;6.47;;;5.70;99.90;;;;;;5066764;28;20102;-68
2022/03/28 06:27:41;;;;;;;11.50;7.07;;;5.70;99.90;;;;;;5063343;28;20064;-69
2022/03/28 06:30:11;;;;;;;7.40;5.95;;;5.70;99.90;;;;;;5059131;28;20052;-69
2022/03/28 06:32:39;;;;;;;10.65;6.82;;;5.80;99.90;;;;;;5058781;28;20131;-68
2022/03/28 06:35:07;;;;;;;9.32;6.18;;;5.80;99.90;;;;;;5055320;28;20056;-69
2022/03/28 06:37:34;;;;;;;9.13;6.55;;;5.90;99.90;;;;;;5066855;28;20056;-69
2022/03/28 06:40:03;;;;;;;9.05;6.47;;;6.00;99.90;;;;;;5067411;28;20056;-70
2022/03/28 06:42:31;;;;;;;9.05;6.55;;;6.00;99.90;;;;;;5086618;28;20423;-69
2022/03/28 06:44:58;;;;;;;11.48;6.60;;;6.00;99.90;;;;;;5061536;28;20413;-69
2022/03/28 06:47:25;;;;;;;10.13;6.25;;;6.20;99.90;;;;;;5066358;28;20086;-69
2022/03/28 06:49:53;;;;;;;9.30;5.25;;;6.10;99.90;;;;;;5086232;28;20044;-68
2022/03/28 06:52:20;;;;;;;6.50;5.13;;;6.10;99.90;;;;;;5089984;28;20451;-69
2022/03/28 06:54:47;;;;;;;6.88;4.95;;;6.10;99.90;;;;;;5079492;28;20385;-69
2022/03/28 06:57:14;;;;;;;8.02;6.05;;;6.10;99.90;;;;;;5080475;28;20052;-69
2022/03/28 06:59:41;;;;;;;7.80;5.90;;;6.20;99.90;;;;;;5069097;28;20052;-69
2022/03/28 07:02:08;;;;;;;12.90;6.28;;;6.20;99.90;;;;;;5070076;28;20048;-69
2022/03/28 07:04:34;;;;;;;7.30;5.75;;;6.30;99.90;;;;;;5072974;28;20393;-70
2022/03/28 07:07:03;;;;;;;13.57;6.97;;;6.40;99.90;;;;;;5061219;28;20105;-69
2022/03/28 07:09:30;;;;;;;9.75;5.88;;;6.40;99.90;;;;;;5054783;28;20548;-70
2022/03/28 07:11:58;;;;;;;7.80;6.03;;;6.40;99.90;;;;;;5059040;28;20064;-70
2022/03/28 07:14:24;;;;;;;8.10;5.80;;;6.40;99.90;;;;;;5066991;28;20044;-70
2022/03/28 07:16:52;;;;;;;9.00;5.75;;;6.50;99.90;;;;;;5066907;28;20136;-70
2022/03/28 07:19:19;;;;;;;9.00;6.55;;;6.40;99.90;;;;;;5088746;28;20617;-70
2022/03/28 07:21:46;;;;;;;8.93;6.50;;;6.50;99.90;;;;;;5090834;28;20403;-70
2022/03/28 07:24:15;;;;;;;8.88;6.30;;;6.60;99.90;;;;;;5058299;28;20049;-70
2022/03/28 07:26:44;;;;;;;11.02;7.43;;;6.60;99.90;;;;;;5081029;28;20063;-70
2022/03/28 07:29:11;;;;;;;11.95;6.95;;;6.60;99.90;;;;;;5092604;28;20476;-70
2022/03/28 07:31:39;;;;;;;10.40;6.70;;;6.70;99.90;;;;;;5083853;28;20457;-69
2022/03/28 07:36:51;;;;;;;12.07;7.53;;;6.70;99.90;;;;;;5056346;28;20055;-69
2022/03/28 07:39:20;;;;;;;8.35;6.45;;;6.80;99.90;;;;;;5081138;28;20062;-70
2022/03/28 07:41:47;;;;;;;10.10;6.70;;;6.80;99.90;;;;;;5082690;28;20047;-70
2022/03/28 07:44:14;;;;;;;8.45;6.47;;;6.80;99.90;;;;;;5083818;28;20048;-70
2022/03/28 07:46:41;;;;;;;9.80;6.20;;;6.90;99.90;;;;;;5071710;28;20044;-70
2022/03/28 07:49:08;;;;;;;9.32;6.57;;;7.00;99.90;;;;;;5079000;28;20053;-70
2022/03/28 07:51:35;;;;;;;8.43;6.47;;;7.00;99.90;;;;;;5081441;28;20048;-69
2022/03/28 07:54:02;;;;;;;9.05;6.38;;;7.10;99.90;;;;;;5076357;28;20471;-69
2022/03/28 07:56:31;;;;;;;9.13;7.00;;;7.10;99.90;;;;;;5059128;28;20127;-69
2022/03/28 07:58:58;;;;;;;14.30;8.75;;;7.20;99.90;;;;;;5085287;28;20414;-70
2022/03/28 08:01:25;;;;;;;13.05;9.07;;;7.10;99.90;;;;;;5074279;28;20048;-69
2022/03/28 08:03:52;;;;;;;12.68;8.43;;;7.20;99.90;;;;;;5085285;28;20067;-70
2022/03/28 08:06:19;;;;;;;11.50;7.70;;;7.30;99.90;;;;;;5076252;28;20508;-69
2022/03/28 08:08:46;;;;;;;14.27;7.72;;;7.30;99.90;;;;;;5081732;28;20055;-69
2022/03/28 08:11:15;;;;;;;12.18;8.05;;;7.30;99.90;;;;;;5056390;28;20052;-70
2022/03/28 08:13:43;;;;;;;12.30;8.65;;;7.40;99.90;;;;;;5065957;28;20048;-70
2022/03/28 08:16:10;;;;;;;14.95;8.85;;;7.40;99.90;;;;;;5059927;28;20059;-69
2022/03/28 08:18:39;;;;;;;12.23;8.98;;;7.50;99.90;;;;;;5060188;28;20044;-70
2022/03/28 08:21:06;;;;;;;17.30;10.88;;;7.60;99.90;;;;;;5079869;28;20135;-69
2022/03/28 08:23:33;;;;;;;16.00;11.40;;;7.60;99.90;;;;;;5080983;28;20049;-69
2022/03/28 08:26:00;;;;;;;18.80;12.52;;;7.60;99.90;;;;;;5088030;28;20130;-69
2022/03/28 08:28:27;;;;;;;24.13;14.00;;;7.60;99.90;;;;;;5077551;28;20052;-70
2022/03/28 08:30:55;;;;;;;20.15;13.30;;;7.70;99.90;;;;;;5067995;28;20123;-69
2022/03/28 08:33:22;;;;;;;20.25;14.00;;;7.70;99.90;;;;;;5069756;28;20159;-69
2022/03/28 08:35:49;;;;;;;18.85;12.90;;;7.70;99.90;;;;;;5090383;28;20048;-70
2022/03/28 08:38:16;;;;;;;17.05;12.05;;;7.70;99.90;;;;;;5059632;28;20052;-69
2022/03/28 08:40:43;;;;;;;17.38;11.63;;;7.80;99.90;;;;;;5079617;28;20092;-70
2022/03/28 08:43:10;;;;;;;17.67;12.20;;;7.90;99.90;;;;;;5064985;28;20056;-70
2022/03/28 08:45:38;;;;;;;16.45;11.18;;;7.90;99.90;;;;;;5064801;28;20491;-70
2022/03/28 08:48:07;;;;;;;15.95;10.10;;;8.00;99.90;;;;;;5075707;28;20475;-70
2022/03/28 08:50:35;;;;;;;15.77;10.68;;;8.00;99.90;;;;;;5058012;28;20057;-70
2022/03/28 08:53:04;;;;;;;16.58;10.32;;;8.10;99.90;;;;;;5068280;28;20096;-70
2022/03/28 08:55:31;;;;;;;16.80;10.05;;;8.10;99.90;;;;;;5065268;28;20087;-70
2022/03/28 08:57:57;;;;;;;13.77;10.55;;;8.20;99.90;;;;;;5089482;28;20495;-70
2022/03/28 09:00:24;;;;;;;15.23;10.02;;;8.20;99.90;;;;;;5084215;28;20052;-70
2022/03/28 09:02:57;;;;;;;13.05;9.65;;;8.20;99.90;;;;;;5066909;28;20048;-70
2022/03/28 09:05:32;;;;;;;17.27;9.50;;;8.40;99.90;;;;;;5053681;28;20060;-69
2022/03/28 09:07:59;;;;;;;13.95;8.43;;;8.40;99.90;;;;;;5089391;28;20057;-69
2022/03/28 09:10:29;;;;;;;13.70;10.05;;;8.60;99.90;;;;;;5061733;28;20052;-70
2022/03/28 09:13:00;;;;;;;13.60;9.15;;;8.60;99.90;;;;;;5081217;28;20048;-69
2022/03/28 09:15:41;;;;;;;12.35;8.75;;;8.80;99.90;;;;;;5058538;28;20067;-69
2022/03/28 09:18:09;;;;;;;13.43;8.85;;;8.90;99.90;;;;;;5062055;28;20044;-69
2022/03/28 09:20:38;;;;;;;11.18;8.45;;;9.00;99.90;;;;;;5071132;28;20118;-70
2022/03/28 09:23:26;;;;;;;12.18;8.82;;;9.10;99.90;;;;;;5078215;28;20066;-70
2022/03/28 09:25:53;;;;;;;12.27;8.98;;;9.10;99.90;;;;;;5071141;28;20049;-69
2022/03/28 09:28:25;;;;;;;11.98;8.85;;;9.10;99.90;;;;;;5070674;28;20138;-70
2022/03/28 09:30:52;;;;;;;12.43;8.43;;;9.10;99.90;;;;;;5067857;28;20054;-69
2022/03/28 09:33:19;;;;;;;11.02;8.45;;;9.20;99.90;;;;;;5060091;28;20056;-70
2022/03/28 09:35:49;;;;;;;11.82;8.35;;;9.20;99.90;;;;;;5065122;28;20516;-69
2022/03/28 09:38:18;;;;;;;15.88;9.40;;;9.40;99.90;;;;;;5062853;28;20044;-69
2022/03/28 09:40:49;;;;;;;14.45;8.88;;;9.50;99.90;;;;;;5084506;28;20052;-69
2022/03/28 09:43:18;;;;;;;12.00;9.25;;;9.50;99.90;;;;;;5067677;28;20587;-69
2022/03/28 09:45:50;;;;;;;13.23;8.85;;;9.50;99.90;;;;;;5080873;28;20049;-70
2022/03/28 09:48:19;;;;;;;11.50;8.30;;;9.50;99.90;;;;;;5086271;28;20044;-70
2022/03/28 09:50:50;;;;;;;12.65;9.10;;;9.50;99.90;;;;;;5079979;28;20110;-69
2022/03/28 09:53:18;;;;;;;;;;;9.60;99.90;;;;;;5059583;28;20106;-70
2022/03/28 09:55:51;;;;;;;13.05;10.00;;;9.50;99.90;;;;;;5072421;28;19962;-70
2022/03/28 09:58:36;;;;;;;13.07;9.02;;;9.60;99.90;;;;;;5075044;28;20549;-70
2022/03/28 10:01:06;;;;;;;14.45;9.70;;;9.70;99.90;;;;;;5069365;28;20056;-71
2022/03/28 10:03:35;;;;;;;16.52;9.13;;;9.70;99.90;;;;;;5095348;28;20533;-70
2022/03/28 10:06:05;;;;;;;13.55;9.52;;;9.80;99.90;;;;;;5078324;28;20052;-71
2022/03/28 10:08:33;;;;;;;12.73;9.23;;;9.90;99.90;;;;;;5059448;28;20076;-70
2022/03/28 10:11:01;;;;;;;10.75;9.18;;;10.00;99.90;;;;;;5071414;28;20052;-69
2022/03/28 10:13:29;;;;;;;12.35;9.77;;;10.00;99.90;;;;;;5076405;28;20051;-69
2022/03/28 10:15:57;;;;;;;12.27;9.32;;;10.10;99.90;;;;;;5084996;28;20040;-69
2022/03/28 10:18:24;;;;;;;11.98;9.45;;;10.20;99.90;;;;;;5066538;28;20070;-68
2022/03/28 10:20:54;;;;;;;15.80;9.82;;;10.20;99.90;;;;;;5069540;28;20109;-69
2022/03/28 10:23:27;;;;;;;12.20;10.02;;;10.30;99.90;;;;;;5084955;28;20079;-69
2022/03/28 10:25:57;;;;;;;13.02;10.30;;;10.40;99.90;;;;;;5085422;28;20041;-69
2022/03/28 10:28:24;;;;;;;14.60;10.02;;;10.50;99.90;;;;;;5078930;28;20051;-69
2022/03/28 10:31:09;;;;;;;13.38;10.43;;;10.50;99.90;;;;;;5088656;28;20492;-69
2022/03/28 10:33:45;;;;;;;15.18;11.65;;;10.70;99.90;;;;;;5060474;28;20566;-70
2022/03/28 10:36:23;;;;;;;13.15;9.90;;;10.80;99.90;;;;;;5073412;28;20060;-69
2022/03/28 10:38:52;;;;;;;12.07;9.90;;;11.00;99.90;;;;;;5080814;28;20296;-71
2022/03/28 10:41:21;;;;;;;12.85;10.38;;;10.90;99.90;;;;;;5062895;28;20080;-70
2022/03/28 10:43:48;;;;;;;14.40;10.07;;;11.00;99.90;;;;;;5087218;28;20056;-70
2022/03/28 10:46:16;;;;;;;14.30;10.40;;;10.90;99.90;;;;;;5066530;28;20052;-69
2022/03/28 10:48:46;;;;;;;16.25;10.85;;;11.10;99.90;;;;;;5091508;28;20177;-70
2022/03/28 10:51:14;;;;;;;13.15;9.98;;;11.20;99.90;;;;;;5086841;28;20052;-69
2022/03/28 10:53:43;;;;;;;13.40;10.43;;;11.30;99.90;;;;;;5062494;28;20045;-69
2022/03/28 10:56:17;;;;;;;13.13;10.48;;;11.30;99.90;;;;;;5084187;28;20052;-70
2022/03/28 10:58:46;;;;;;;12.27;9.77;;;11.50;99.90;;;;;;5085007;28;20105;-69
2022/03/28 11:01:27;;;;;;;15.43;10.82;;;11.50;99.90;;;;;;5059062;28;20568;-69
2022/03/28 11:03:57;;;;;;;20.42;9.77;;;11.60;99.90;;;;;;5074911;28;20136;-70
2022/03/28 11:07:00;;;;;;;14.07;9.98;;;11.50;99.90;;;;;;5060486;28;20048;-69
2022/03/28 11:09:35;;;;;;;11.75;9.70;;;11.70;99.90;;;;;;4977608;28;20043;-70
2022/03/28 11:12:09;;;;;;;12.32;9.57;;;11.60;99.90;;;;;;5042576;28;20059;-70
2022/03/28 11:14:41;;;;;;;13.55;9.88;;;11.70;99.90;;;;;;5063404;28;20164;-70
2022/03/28 11:17:17;;;;;;;13.43;9.85;;;11.90;99.90;;;;;;5064608;28;20052;-70
2022/03/28 11:20:12;;;;;;;19.52;11.25;;;11.90;99.90;;;;;;5091483;28;20044;-70
2022/03/28 11:22:44;;;;;;;13.65;10.27;;;12.20;99.90;;;;;;5057466;28;20044;-70
2022/03/28 11:25:38;;;;;;;13.48;9.52;;;12.20;99.90;;;;;;5088385;28;20049;-70
2022/03/28 11:28:09;;;;;;;11.20;8.90;;;12.40;99.90;;;;;;5072192;28;20523;-69
2022/03/28 11:30:39;;;;;;;17.35;9.85;;;12.60;99.90;;;;;;5088564;28;20060;-69
2022/03/28 11:33:10;;;;;;;12.70;10.45;;;12.90;99.90;;;;;;5082043;28;20055;-69
2022/03/28 11:35:38;;;;;;;14.80;9.25;;;13.20;99.90;;;;;;5056223;28;20516;-70
2022/03/28 11:38:06;;;;;;;12.25;9.15;;;13.50;99.90;;;;;;5084690;28;20225;-70
2022/03/28 11:40:40;;;;;;;11.82;8.90;;;13.90;99.90;;;;;;5066583;28;20052;-70
2022/03/28 11:43:09;;;;;;;11.55;8.85;;;14.40;99.90;;;;;;5079250;28;20062;-70
2022/03/28 11:45:37;;;;;;;10.70;8.85;;;14.60;99.90;;;;;;5065027;28;20060;-70
2022/03/28 11:48:04;;;;;;;12.25;9.13;;;14.40;99.90;;;;;;5068482;28;20048;-70
2022/03/28 11:50:32;;;;;;;11.93;8.38;;;14.60;99.90;;;;;;5091225;28;20116;-71
2022/03/28 11:52:59;;;;;;;16.23;9.52;;;14.60;99.90;;;;;;5059352;28;20061;-70
2022/03/28 11:55:29;;;;;;;12.35;9.32;;;14.80;99.90;;;;;;5075561;28;20537;-70
2022/03/28 11:58:16;;;;;;;9.98;8.70;;;14.70;99.90;;;;;;5060870;28;20063;-69
2022/03/28 12:00:47;;;;;;;11.73;9.57;;;14.90;99.90;;;;;;5089911;28;20044;-70
2022/03/28 12:03:15;;;;;;;13.05;9.85;;;15.50;99.90;;;;;;5079803;28;20061;-70
2022/03/28 12:05:43;;;;;;;11.70;9.45;;;15.70;99.90;;;;;;5084237;28;20098;-70
2022/03/28 12:08:13;;;;;;;11.70;8.65;;;15.80;99.90;;;;;;5063933;28;20083;-70
2022/03/28 12:10:42;;;;;;;11.63;9.40;;;15.80;99.90;;;;;;5054002;28;20049;-70
2022/03/28 12:13:10;;;;;;;13.88;9.60;;;16.00;99.90;;;;;;5067870;28;20055;-70
2022/03/28 12:15:38;;;;;;;14.63;9.68;;;15.70;99.90;;;;;;5074558;28;20040;-70
2022/03/28 12:18:09;;;;;;;12.88;9.23;;;15.70;99.90;;;;;;5061932;28;20497;-70
2022/03/28 12:20:38;;;;;;;12.73;8.77;;;16.10;99.90;;;;;;5064537;28;20055;-71
2022/03/28 12:23:06;;;;;;;12.20;9.15;;;16.80;99.90;;;;;;5060087;28;20520;-69
2022/03/28 12:25:36;;;;;;;11.65;9.52;;;16.80;99.90;;;;;;5078812;28;20052;-71
2022/03/28 12:28:06;;;;;;;10.48;8.45;;;17.00;99.90;;;;;;5064055;28;20067;-71
2022/03/28 12:30:36;;;;;;;12.95;8.73;;;17.20;99.90;;;;;;5058420;28;20099;-71
2022/03/28 12:33:16;;;;;;;10.10;7.73;;;17.40;99.70;;;;;;5059093;28;20117;-71
2022/03/28 12:35:46;;;;;;;11.43;8.52;;;17.40;97.50;;;;;;5056829;28;20067;-71
2022/03/28 12:38:18;;;;;;;10.27;8.45;;;17.30;99.40;;;;;;5051741;28;20045;-71
2022/03/28 12:40:46;;;;;;;9.98;7.95;;;16.70;99.20;;;;;;5052958;28;20547;-71
2022/03/28 12:43:14;;;;;;;9.88;8.15;;;16.40;99.90;;;;;;5063114;28;20048;-71
2022/03/28 12:45:43;;;;;;;10.70;8.32;;;16.00;99.90;;;;;;5063581;28;20119;-72
2022/03/28 12:48:12;;;;;;;9.95;7.55;;;16.00;99.90;;;;;;5054920;28;20052;-70
2022/03/28 12:50:55;;;;;;;9.40;7.78;;;15.80;99.90;;;;;;5066377;28;20131;-71
2022/03/28 12:53:25;;;;;;;10.15;7.70;;;15.70;99.90;;;;;;5059292;28;20048;-71
2022/03/28 12:55:52;;;;;;;10.38;8.27;;;15.30;99.90;;;;;;5062786;28;20044;-71
2022/03/28 12:58:19;;;;;;;12.70;8.23;;;14.90;99.90;;;;;;5049960;28;20360;-72